Time;durP1;ratioP1;P1;durP2;ratioP2;P2;SDS_P1;SDS_P2;PMS_P1;PMS_P2;Temp;Humidity;BMP_temperature;BMP_pressure;BME280_temperature;BME280_humidity;BME280_pressure;Samples;Min_cycle;Max_cycle;Signal;HPM_P1;HPM_P2
2021/04/11 00:00:13;;;;;;;12.98;11.13;;;;;;;;;;5075049;28;20201;-65
2021/04/11 00:02:40;;;;;;;12.38;9.88;;;;;;;;;;5074574;28;20233;-65
2021/04/11 00:05:08;;;;;;;14.13;9.98;;;;;;;;;;5074519;28;20202;-65
2021/04/11 00:07:35;;;;;;;16.00;10.18;;;;;;;;;;5074787;28;20285;-65
2021/04/11 00:10:02;;;;;;;11.05;9.40;;;;;;;;;;5074709;28;20244;-65
2021/04/11 00:12:29;;;;;;;17.38;9.77;;;;;;;;;;5074210;28;20201;-65
2021/04/11 00:14:56;;;;;;;13.80;9.95;;;;;;;;;;5074233;28;20260;-65
2021/04/11 00:17:22;;;;;;;11.20;10.10;;;;;;;;;;5074629;28;20227;-65
2021/04/11 00:19:49;;;;;;;11.27;9.75;;;;;;;;;;5074521;28;20206;-65
2021/04/11 00:22:16;;;;;;;10.50;9.50;;;;;;;;;;5074168;28;20196;-65
2021/04/11 00:24:44;;;;;;;13.93;10.45;;;;;;;;;;5074157;28;20231;-65
2021/04/11 00:27:11;;;;;;;9.75;8.70;;;;;;;;;;5074089;28;20283;-65
2021/04/11 00:29:37;;;;;;;11.48;9.10;;;;;;;;;;5074378;28;20203;-67
2021/04/11 00:32:06;;;;;;;10.38;8.13;;;;;;;;;;5074299;28;20253;-66
2021/04/11 00:34:33;;;;;;;10.20;9.10;;;;;;;;;;5074731;28;20211;-67
2021/04/11 00:37:00;;;;;;;11.55;8.68;;;;;;;;;;5074290;28;20227;-66
2021/04/11 00:39:26;;;;;;;12.73;9.18;;;;;;;;;;5074207;28;20279;-66
2021/04/11 00:41:57;;;;;;;9.35;8.55;;;;;;;;;;5074247;28;20203;-66
2021/04/11 00:44:24;;;;;;;12.35;8.55;;;;;;;;;;5073809;28;20226;-66
2021/04/11 00:46:52;;;;;;;10.95;8.70;;;;;;;;;;5073509;28;20232;-66
2021/04/11 00:49:22;;;;;;;11.15;9.43;;;;;;;;;;5073720;28;20687;-66
2021/04/11 00:51:49;;;;;;;11.38;8.30;;;;;;;;;;5073747;28;20360;-66
2021/04/11 00:54:16;;;;;;;12.20;9.40;;;;;;;;;;5073599;28;20221;-66
2021/04/11 00:56:42;;;;;;;9.35;8.00;;;;;;;;;;5073637;28;20205;-66
2021/04/11 00:59:11;;;;;;;11.75;8.20;;;;;;;;;;5073925;28;20286;-66
2021/04/11 01:01:38;;;;;;;13.32;8.00;;;;;;;;;;5073835;28;20198;-66
2021/04/11 01:04:06;;;;;;;9.88;8.02;;;;;;;;;;5074177;28;20199;-66
2021/04/11 01:06:34;;;;;;;10.43;7.55;;;;;;;;;;5074065;28;20683;-66
2021/04/11 01:09:01;;;;;;;8.57;7.38;;;;;;;;;;5074159;28;20203;-65
2021/04/11 01:11:29;;;;;;;8.40;7.60;;;;;;;;;;5074122;28;20228;-65
2021/04/11 01:13:57;;;;;;;8.65;7.70;;;;;;;;;;5073680;28;20675;-65
2021/04/11 01:16:25;;;;;;;9.93;7.78;;;;;;;;;;5073693;28;20657;-65
2021/04/11 01:18:53;;;;;;;9.63;7.55;;;;;;;;;;5073321;28;20721;-65
2021/04/11 01:21:23;;;;;;;17.25;8.55;;;;;;;;;;5073268;28;20208;-65
2021/04/11 01:23:53;;;;;;;10.23;8.63;;;;;;;;;;5073923;28;20269;-65
2021/04/11 01:26:21;;;;;;;8.35;7.55;;;;;;;;;;5073253;28;20295;-65
2021/04/11 01:28:48;;;;;;;9.07;8.18;;;;;;;;;;5073982;28;20279;-65
2021/04/11 01:31:16;;;;;;;8.30;7.60;;;;;;;;;;5073796;28;20235;-65
2021/04/11 01:33:45;;;;;;;8.45;7.47;;;;;;;;;;5073519;28;20258;-65
2021/04/11 01:36:13;;;;;;;8.93;8.07;;;;;;;;;;5073683;28;20231;-65
2021/04/11 01:38:41;;;;;;;8.57;7.32;;;;;;;;;;5073443;28;20296;-65
2021/04/11 01:41:11;;;;;;;10.95;7.55;;;;;;;;;;5073722;28;20613;-65
2021/04/11 01:43:39;;;;;;;9.10;7.90;;;;;;;;;;5073108;28;20231;-65
2021/04/11 01:46:06;;;;;;;8.85;7.75;;;;;;;;;;5072973;28;20800;-65
2021/04/11 01:48:33;;;;;;;14.05;7.72;;;;;;;;;;5073314;28;20308;-66
2021/04/11 01:51:00;;;;;;;9.82;8.25;;;;;;;;;;5073773;28;20239;-65
2021/04/11 01:53:29;;;;;;;7.82;7.03;;;;;;;;;;5072923;28;20312;-66
2021/04/11 01:55:56;;;;;;;8.48;6.57;;;;;;;;;;5073296;28;20202;-65
2021/04/11 01:58:23;;;;;;;10.55;8.05;;;;;;;;;;5073857;28;20647;-66
2021/04/11 02:00:59;;;;;;;8.52;7.63;;;;;;;;;;5072865;28;20291;-65
2021/04/11 02:03:26;;;;;;;8.13;7.28;;;;;;;;;;5075322;28;20274;-65
2021/04/11 02:05:53;;;;;;;13.30;6.90;;;;;;;;;;5077120;28;20229;-65
2021/04/11 02:08:21;;;;;;;9.48;8.32;;;;;;;;;;5076733;28;20286;-66
2021/04/11 02:10:49;;;;;;;11.20;7.38;;;;;;;;;;5077094;28;20206;-65
2021/04/11 02:13:16;;;;;;;10.15;8.02;;;;;;;;;;5077090;28;20720;-65
2021/04/11 02:15:45;;;;;;;11.43;8.15;;;;;;;;;;5076868;28;20232;-65
2021/04/11 02:18:13;;;;;;;10.20;7.50;;;;;;;;;;5076894;28;20287;-65
2021/04/11 02:20:40;;;;;;;8.60;7.65;;;;;;;;;;5076488;28;20232;-65
2021/04/11 02:23:08;;;;;;;13.88;9.32;;;;;;;;;;5077323;28;20201;-66
2021/04/11 02:25:36;;;;;;;10.35;8.20;;;;;;;;;;5076423;28;20235;-65
2021/04/11 02:28:04;;;;;;;8.70;7.38;;;;;;;;;;5077458;28;20234;-65
2021/04/11 02:30:31;;;;;;;9.98;7.13;;;;;;;;;;5076948;28;20234;-65
2021/04/11 02:32:58;;;;;;;8.40;7.60;;;;;;;;;;5076747;28;20286;-66
2021/04/11 02:35:27;;;;;;;10.32;7.93;;;;;;;;;;5076258;28;20197;-65
2021/04/11 02:37:55;;;;;;;9.02;7.10;;;;;;;;;;5076188;28;20281;-67
2021/04/11 02:40:24;;;;;;;8.23;7.07;;;;;;;;;;5076418;28;20228;-66
2021/04/11 02:42:51;;;;;;;8.88;7.93;;;;;;;;;;5077260;28;20668;-66
2021/04/11 02:45:21;;;;;;;9.52;8.45;;;;;;;;;;5075932;28;20232;-65
2021/04/11 02:47:47;;;;;;;8.52;7.63;;;;;;;;;;5076341;28;20291;-65
2021/04/11 02:50:15;;;;;;;9.25;8.32;;;;;;;;;;5076038;28;20740;-65
2021/04/11 02:52:44;;;;;;;10.10;8.10;;;;;;;;;;5075985;28;20366;-65
2021/04/11 02:55:12;;;;;;;9.23;7.43;;;;;;;;;;5075824;28;20288;-66
2021/04/11 02:57:39;;;;;;;8.73;7.32;;;;;;;;;;5075855;28;20851;-65
2021/04/11 03:00:07;;;;;;;8.55;7.65;;;;;;;;;;5075853;28;20287;-66
2021/04/11 03:02:34;;;;;;;9.70;8.70;;;;;;;;;;5075798;28;20288;-65
2021/04/11 03:05:01;;;;;;;10.07;8.02;;;;;;;;;;5075766;28;20243;-65
2021/04/11 03:07:30;;;;;;;9.50;8.27;;;;;;;;;;5075698;28;20239;-66
2021/04/11 03:09:59;;;;;;;9.25;8.35;;;;;;;;;;5075922;28;20225;-66
2021/04/11 03:12:26;;;;;;;9.50;8.70;;;;;;;;;;5075796;28;20296;-65
2021/04/11 03:14:54;;;;;;;9.13;8.23;;;;;;;;;;5075404;28;20304;-65
2021/04/11 03:17:22;;;;;;;9.30;8.40;;;;;;;;;;5075777;28;20196;-65
2021/04/11 03:19:54;;;;;;;10.45;9.23;;;;;;;;;;5075392;28;20286;-66
2021/04/11 03:22:21;;;;;;;13.70;10.57;;;;;;;;;;5075965;28;20605;-66
2021/04/11 03:24:49;;;;;;;15.68;11.35;;;;;;;;;;5076121;28;20619;-65
2021/04/11 03:27:18;;;;;;;14.02;11.07;;;;;;;;;;5075266;28;20237;-65
2021/04/11 03:29:47;;;;;;;17.73;13.18;;;;;;;;;;5075275;28;20230;-65
2021/04/11 03:32:16;;;;;;;16.20;12.32;;;;;;;;;;5075201;28;20281;-65
2021/04/11 03:34:44;;;;;;;14.55;12.95;;;;;;;;;;5075168;28;20777;-65
2021/04/11 03:37:12;;;;;;;14.10;12.60;;;;;;;;;;5075150;28;20192;-65
2021/04/11 03:39:39;;;;;;;13.73;11.80;;;;;;;;;;5075801;28;20232;-65
2021/04/11 03:42:07;;;;;;;14.70;13.00;;;;;;;;;;5075191;28;20203;-65
2021/04/11 03:44:36;;;;;;;19.27;15.57;;;;;;;;;;5074976;28;20205;-66
2021/04/11 03:47:04;;;;;;;16.25;13.93;;;;;;;;;;5075301;28;20223;-65
2021/04/11 03:49:34;;;;;;;17.75;14.75;;;;;;;;;;5075153;28;20597;-65
2021/04/11 03:52:02;;;;;;;19.42;14.90;;;;;;;;;;5075038;28;20231;-65
2021/04/11 03:54:30;;;;;;;18.80;14.02;;;;;;;;;;5074601;28;20226;-66
2021/04/11 03:57:07;;;;;;;19.30;14.60;;;;;;;;;;5074643;28;20196;-66
2021/04/11 03:59:34;;;;;;;19.80;16.08;;;;;;;;;;5074667;28;20180;-66
2021/04/11 04:02:02;;;;;;;18.92;14.93;;;;;;;;;;5075652;28;20202;-67
2021/04/11 04:04:29;;;;;;;16.17;13.45;;;;;;;;;;5074840;28;20210;-65
2021/04/11 04:07:09;;;;;;;16.90;13.40;;;;;;;;;;5074835;28;20628;-65
2021/04/11 04:09:36;;;;;;;15.85;12.32;;;;;;;;;;5074498;28;20218;-65
2021/04/11 04:12:17;;;;;;;14.65;11.80;;;;;;;;;;5074817;28;20204;-65
2021/04/11 04:14:48;;;;;;;13.43;10.77;;;;;;;;;;5074596;28;20302;-65
2021/04/11 04:17:21;;;;;;;14.63;11.45;;;;;;;;;;5074871;28;20220;-67
2021/04/11 04:19:55;;;;;;;13.75;10.60;;;;;;;;;;5074645;28;20653;-65
2021/04/11 04:22:33;;;;;;;13.48;11.25;;;;;;;;;;5075115;28;20265;-64
2021/04/11 04:25:06;;;;;;;12.75;9.10;;;;;;;;;;5074074;28;20715;-65
2021/04/11 04:27:36;;;;;;;10.75;9.63;;;;;;;;;;5074239;28;20191;-64
2021/04/11 04:30:10;;;;;;;10.85;9.60;;;;;;;;;;5074390;28;20234;-65
2021/04/11 04:32:44;;;;;;;12.30;9.57;;;;;;;;;;5064612;28;20712;-64
2021/04/11 04:35:16;;;;;;;12.07;9.88;;;;;;;;;;5059709;28;20236;-65
2021/04/11 04:37:49;;;;;;;12.18;10.15;;;;;;;;;;5053882;28;20713;-65
2021/04/11 04:40:24;;;;;;;10.30;8.43;;;;;;;;;;5054612;28;20273;-65
2021/04/11 04:42:53;;;;;;;7.72;6.85;;;;;;;;;;5054113;28;20226;-65
2021/04/11 04:45:25;;;;;;;7.20;6.15;;;;;;;;;;5053615;28;20291;-65
2021/04/11 04:47:55;;;;;;;7.60;6.78;;;;;;;;;;5054943;28;20227;-65
2021/04/11 04:50:23;;;;;;;7.03;5.97;;;;;;;;;;5053788;28;20226;-65
2021/04/11 04:52:57;;;;;;;8.43;7.20;;;;;;;;;;5054257;28;20250;-65
2021/04/11 04:55:26;;;;;;;7.93;5.90;;;;;;;;;;5053717;28;20774;-64
2021/04/11 04:57:55;;;;;;;7.95;6.90;;;;;;;;;;5054254;28;20241;-65
2021/04/11 05:00:23;;;;;;;7.97;7.05;;;;;;;;;;5054645;28;20709;-64
2021/04/11 05:02:52;;;;;;;9.73;7.53;;;;;;;;;;5065695;28;20203;-65
2021/04/11 05:05:20;;;;;;;9.80;7.60;;;;;;;;;;5074103;28;20293;-65
2021/04/11 05:07:48;;;;;;;8.07;7.00;;;;;;;;;;5073479;28;20234;-65
2021/04/11 05:10:17;;;;;;;8.55;7.65;;;;;;;;;;5074158;28;20242;-65
2021/04/11 05:12:47;;;;;;;7.55;6.75;;;;;;;;;;5073824;28;20245;-65
2021/04/11 05:15:15;;;;;;;8.23;6.85;;;;;;;;;;5073169;28;20353;-64
2021/04/11 05:17:44;;;;;;;8.70;7.15;;;;;;;;;;5073138;28;20282;-65
2021/04/11 05:20:12;;;;;;;8.43;6.80;;;;;;;;;;5073276;28;20238;-64
2021/04/11 05:22:42;;;;;;;7.38;6.63;;;;;;;;;;5073576;28;20302;-65
2021/04/11 05:25:11;;;;;;;7.18;6.40;;;;;;;;;;5074067;28;20660;-65
2021/04/11 05:27:43;;;;;;;6.63;5.93;;;;;;;;;;5060196;28;20286;-65
2021/04/11 05:30:11;;;;;;;7.25;6.55;;;;;;;;;;5055726;28;20193;-65
2021/04/11 05:32:38;;;;;;;7.70;6.32;;;;;;;;;;5064881;28;20281;-64
2021/04/11 05:35:06;;;;;;;6.65;4.88;;;;;;;;;;5053324;28;20298;-64
2021/04/11 05:37:37;;;;;;;7.05;5.93;;;;;;;;;;5053827;28;20627;-65
2021/04/11 05:40:08;;;;;;;4.45;4.13;;;;;;;;;;5066362;28;20287;-66
2021/04/11 05:42:38;;;;;;;6.95;6.25;;;;;;;;;;5077697;28;20340;-65
2021/04/11 05:45:08;;;;;;;7.63;6.65;;;;;;;;;;5077060;28;20718;-64
2021/04/11 05:47:39;;;;;;;8.88;6.32;;;;;;;;;;5077642;28;20222;-65
2021/04/11 05:50:07;;;;;;;7.63;6.82;;;;;;;;;;5077300;28;20669;-65
2021/04/11 05:52:38;;;;;;;6.95;6.25;;;;;;;;;;5077378;28;20229;-65
2021/04/11 05:55:08;;;;;;;6.32;5.72;;;;;;;;;;5078497;28;20297;-65
2021/04/11 05:57:39;;;;;;;8.70;7.43;;;;;;;;;;5081324;28;20224;-65
2021/04/11 06:00:07;;;;;;;7.95;7.15;;;;;;;;;;5081495;28;20183;-65
2021/04/11 06:02:49;;;;;;;8.35;7.40;;;;;;;;;;5078774;28;20237;-66
2021/04/11 06:05:20;;;;;;;8.75;7.85;;;;;;;;;;5065261;28;20287;-65
2021/04/11 06:07:49;;;;;;;14.27;9.80;;;;;;;;;;5058724;28;20220;-65
2021/04/11 06:10:18;;;;;;;12.40;9.63;;;;;;;;;;5059366;28;20285;-65
2021/04/11 06:12:51;;;;;;;12.85;9.30;;;;;;;;;;5057859;28;20278;-66
2021/04/11 06:15:22;;;;;;;10.82;8.90;;;;;;;;;;5057711;28;20246;-65
2021/04/11 06:17:50;;;;;;;12.38;9.02;;;;;;;;;;5057104;28;20327;-65
2021/04/11 06:20:17;;;;;;;12.30;10.98;;;;;;;;;;5056865;28;20283;-65
2021/04/11 06:22:46;;;;;;;9.88;8.13;;;;;;;;;;5056462;28;20195;-66
2021/04/11 06:25:15;;;;;;;12.40;10.00;;;;;;;;;;5056353;28;20296;-65
2021/04/11 06:27:46;;;;;;;14.05;9.65;;;;;;;;;;5056777;28;20282;-65
2021/04/11 06:30:18;;;;;;;13.57;10.45;;;;;;;;;;5057176;28;20215;-65
2021/04/11 06:32:47;;;;;;;12.13;7.40;;;;;;;;;;5056367;28;20190;-65
2021/04/11 06:35:16;;;;;;;16.75;12.85;;;;;;;;;;5056217;28;20615;-65
2021/04/11 06:37:44;;;;;;;18.50;13.30;;;;;;;;;;5056979;28;20281;-65
2021/04/11 06:40:16;;;;;;;18.00;11.20;;;;;;;;;;5056783;28;20641;-65
2021/04/11 06:43:00;;;;;;;17.15;13.35;;;;;;;;;;5057032;28;20202;-65
2021/04/11 06:45:32;;;;;;;20.60;13.90;;;;;;;;;;5055888;28;20273;-65
2021/04/11 06:48:22;;;;;;;21.73;14.68;;;;;;;;;;5057166;28;20252;-65
2021/04/11 06:50:56;;;;;;;18.40;14.38;;;;;;;;;;5056350;28;20287;-65
2021/04/11 06:53:47;;;;;;;20.08;14.93;;;;;;;;;;5056179;28;20637;-66
2021/04/11 06:56:25;;;;;;;18.45;11.25;;;;;;;;;;5056593;28;20279;-65
2021/04/11 06:58:57;;;;;;;18.02;13.50;;;;;;;;;;5056209;28;20187;-66
2021/04/11 07:01:45;;;;;;;20.63;14.75;;;;;;;;;;5056181;28;20223;-65
2021/04/11 07:04:29;;;;;;;22.58;14.02;;;;;;;;;;5038738;28;20234;-67
2021/04/11 07:07:20;;;;;;;15.77;12.18;;;;;;;;;;5056245;28;20267;-67
2021/04/11 07:09:51;;;;;;;18.60;13.05;;;;;;;;;;5056319;28;20266;-66
2021/04/11 07:12:36;;;;;;;19.17;15.45;;;;;;;;;;5055966;28;20210;-65
2021/04/11 07:15:13;;;;;;;19.50;15.00;;;;;;;;;;5055568;28;20714;-65
2021/04/11 07:17:47;;;;;;;21.23;15.77;;;;;;;;;;5055532;28;20191;-62
2021/04/11 07:20:43;;;;;;;25.30;16.50;;;;;;;;;;5055479;28;20218;-62
2021/04/11 07:23:34;;;;;;;19.95;13.73;;;;;;;;;;5013692;28;20275;-62
2021/04/11 07:26:13;;;;;;;22.08;14.80;;;;;;;;;;5053277;28;20202;-67
2021/04/11 07:28:44;;;;;;;21.48;13.88;;;;;;;;;;5055547;28;20273;-66
2021/04/11 07:31:20;;;;;;;20.02;11.90;;;;;;;;;;5055582;28;20317;-66
2021/04/11 07:34:05;;;;;;;20.48;14.43;;;;;;;;;;5055810;28;20207;-65
2021/04/11 07:36:45;;;;;;;12.30;10.50;;;;;;;;;;5055746;28;20655;-65
2021/04/11 07:39:17;;;;;;;15.48;12.25;;;;;;;;;;5055666;28;20265;-65
2021/04/11 07:41:51;;;;;;;15.88;11.93;;;;;;;;;;5055085;28;20195;-65
2021/04/11 07:44:31;;;;;;;16.98;13.13;;;;;;;;;;5055079;28;20187;-65
2021/04/11 07:47:10;;;;;;;14.60;11.90;;;;;;;;;;5056263;28;20649;-65
2021/04/11 07:49:46;;;;;;;16.08;12.75;;;;;;;;;;5055069;28;20708;-64
2021/04/11 07:52:32;;;;;;;16.27;12.82;;;;;;;;;;5055798;28;20209;-65
2021/04/11 07:55:06;;;;;;;14.15;10.32;;;;;;;;;;5025743;28;20227;-65
2021/04/11 07:57:52;;;;;;;15.15;12.20;;;;;;;;;;5054939;28;20276;-64
2021/04/11 08:00:36;;;;;;;11.75;10.48;;;;;;;;;;5054279;28;20196;-65
2021/04/11 08:03:19;;;;;;;11.73;9.35;;;;;;;;;;5055015;28;20280;-65
2021/04/11 08:05:50;;;;;;;11.75;6.93;;;;;;;;;;5055002;28;20274;-65
2021/04/11 08:08:24;;;;;;;8.45;7.32;;;;;;;;;;5054866;28;20273;-65
2021/04/11 08:11:15;;;;;;;7.95;6.68;;;;;;;;;;5054938;28;20218;-65
2021/04/11 08:13:57;;;;;;;9.35;7.75;;;;;;;;;;5044281;28;20322;-65
2021/04/11 08:16:41;;;;;;;8.90;7.13;;;;;;;;;;5053217;28;20233;-65
2021/04/11 08:19:26;;;;;;;8.02;7.22;;;;;;;;;;5054678;28;20183;-65
2021/04/11 08:22:07;;;;;;;10.50;7.20;;;;;;;;;;5054800;28;20206;-65
2021/04/11 08:24:55;;;;;;;7.90;5.72;;;;;;;;;;5054497;28;20269;-65
2021/04/11 08:27:33;;;;;;;9.30;6.70;;;;;;;;;;5055031;28;20556;-66
2021/04/11 08:30:22;;;;;;;6.43;5.30;;;;;;;;;;5054520;28;20186;-65
2021/04/11 08:33:14;;;;;;;6.75;6.05;;;;;;;;;;5054701;28;20191;-67
2021/04/11 08:35:46;;;;;;;10.93;7.90;;;;;;;;;;5044951;28;20292;-66
2021/04/11 08:38:37;;;;;;;7.97;7.00;;;;;;;;;;5055384;28;20720;-67
2021/04/11 08:41:20;;;;;;;9.65;7.63;;;;;;;;;;5056098;28;20246;-67
2021/04/11 08:44:04;;;;;;;7.95;5.63;;;;;;;;;;5055707;28;20649;-66
2021/04/11 08:46:36;;;;;;;9.55;7.13;;;;;;;;;;5048144;28;20265;-67
2021/04/11 08:49:11;;;;;;;7.93;6.38;;;;;;;;;;5056458;28;20645;-66
2021/04/11 08:51:43;;;;;;;7.35;6.65;;;;;;;;;;5054284;28;20187;-67
2021/04/11 08:54:19;;;;;;;9.85;6.93;;;;;;;;;;5054556;28;20242;-66
2021/04/11 08:56:50;;;;;;;6.70;6.10;;;;;;;;;;5055201;28;20253;-66
2021/04/11 08:59:31;;;;;;;7.30;6.60;;;;;;;;;;5054589;28;20219;-66
2021/04/11 09:02:05;;;;;;;7.55;6.15;;;;;;;;;;5054476;28;20278;-67
2021/04/11 09:04:35;;;;;;;6.95;6.25;;;;;;;;;;5053721;28;20289;-66
2021/04/11 09:07:06;;;;;;;5.93;5.32;;;;;;;;;;5054173;28;20278;-66
2021/04/11 09:09:46;;;;;;;9.40;6.38;;;;;;;;;;5053730;28;20223;-68
2021/04/11 09:12:18;;;;;;;4.82;4.30;;;;;;;;;;5053825;28;20286;-68
2021/04/11 09:14:52;;;;;;;5.65;4.55;;;;;;;;;;5054034;28;20294;-66
2021/04/11 09:17:28;;;;;;;7.55;5.15;;;;;;;;;;5054165;28;20274;-66
2021/04/11 09:19:57;;;;;;;5.30;4.72;;;;;;;;;;5054341;28;20191;-66
2021/04/11 09:22:44;;;;;;;5.30;4.72;;;;;;;;;;5053364;28;20281;-66
2021/04/11 09:25:13;;;;;;;4.00;3.60;;;;;;;;;;5054183;28;20190;-66
2021/04/11 09:27:59;;;;;;;4.80;4.40;;;;;;;;;;5053577;28;20253;-67
2021/04/11 09:30:36;;;;;;;4.22;3.83;;;;;;;;;;5053290;28;20235;-66
2021/04/11 09:33:17;;;;;;;3.58;3.28;;;;;;;;;;5054019;28;20243;-67
2021/04/11 09:35:46;;;;;;;3.83;3.53;;;;;;;;;;5053463;28;20214;-70
2021/04/11 09:38:36;;;;;;;4.10;3.30;;;;;;;;;;5053473;28;20191;-70
2021/04/11 09:41:26;;;;;;;3.22;3.03;;;;;;;;;;5053819;28;20626;-70
2021/04/11 09:44:08;;;;;;;3.80;3.50;;;;;;;;;;5043245;28;20345;-70
2021/04/11 09:46:44;;;;;;;5.47;2.90;;;;;;;;;;5053837;28;20223;-70
2021/04/11 09:49:24;;;;;;;2.97;2.75;;;;;;;;;;5053294;28;20728;-66
2021/04/11 09:52:09;;;;;;;5.63;3.30;;;;;;;;;;5053127;28;20312;-65
2021/04/11 09:54:44;;;;;;;3.20;3.00;;;;;;;;;;5053474;28;20242;-67
2021/04/11 09:57:25;;;;;;;3.60;3.25;;;;;;;;;;5053292;28;20244;-66
2021/04/11 10:00:07;;;;;;;3.10;2.90;;;;;;;;;;5044627;28;20237;-66
2021/04/11 10:02:43;;;;;;;2.90;2.70;;;;;;;;;;5053050;28;20269;-68
2021/04/11 10:05:14;;;;;;;3.00;2.80;;;;;;;;;;5053355;28;20309;-66
2021/04/11 10:07:47;;;;;;;3.10;2.88;;;;;;;;;;5053311;28;20230;-67
2021/04/11 10:10:22;;;;;;;2.75;2.35;;;;;;;;;;5052904;28;20194;-67
2021/04/11 10:12:59;;;;;;;3.22;2.95;;;;;;;;;;5053271;28;20716;-67
2021/04/11 10:15:31;;;;;;;3.88;3.55;;;;;;;;;;5053371;28;20246;-67
2021/04/11 10:18:10;;;;;;;2.92;2.72;;;;;;;;;;5053045;28;20188;-67
2021/04/11 10:20:39;;;;;;;3.33;3.13;;;;;;;;;;5052780;28;20218;-67
2021/04/11 10:23:09;;;;;;;2.35;2.15;;;;;;;;;;5052650;28;20239;-67
2021/04/11 10:25:38;;;;;;;2.70;2.50;;;;;;;;;;5056681;28;20567;-66
2021/04/11 10:28:09;;;;;;;2.63;2.42;;;;;;;;;;5057291;28;20283;-67
2021/04/11 10:30:37;;;;;;;3.08;2.72;;;;;;;;;;5056830;28;20273;-67
2021/04/11 10:33:08;;;;;;;3.38;3.10;;;;;;;;;;5056836;28;20260;-68
2021/04/11 10:35:37;;;;;;;2.40;2.30;;;;;;;;;;5056651;28;20211;-67
2021/04/11 10:38:07;;;;;;;2.67;2.47;;;;;;;;;;5057311;28;20223;-67
2021/04/11 10:40:45;;;;;;;3.03;2.83;;;;;;;;;;5057077;28;20207;-67
2021/04/11 10:43:21;;;;;;;3.20;3.00;;;;;;;;;;5057508;28;20194;-67
2021/04/11 10:45:50;;;;;;;3.17;2.95;;;;;;;;;;5057257;28;20265;-67
2021/04/11 10:48:31;;;;;;;3.38;2.90;;;;;;;;;;5056442;28;20200;-67
2021/04/11 10:51:08;;;;;;;2.50;2.30;;;;;;;;;;5055341;28;20703;-67
2021/04/11 10:53:45;;;;;;;3.50;2.90;;;;;;;;;;5056153;28;20180;-67
2021/04/11 10:56:17;;;;;;;3.13;2.72;;;;;;;;;;5056334;28;20662;-67
2021/04/11 10:59:02;;;;;;;2.70;2.50;;;;;;;;;;5056720;28;20183;-68
2021/04/11 11:01:40;;;;;;;2.50;2.30;;;;;;;;;;5056893;28;20195;-67
2021/04/11 11:04:34;;;;;;;2.58;2.38;;;;;;;;;;5056676;28;20187;-67
2021/04/11 11:07:14;;;;;;;3.35;2.72;;;;;;;;;;5032907;28;20230;-66
2021/04/11 11:09:43;;;;;;;2.88;2.40;;;;;;;;;;5056499;28;20198;-67
2021/04/11 11:12:17;;;;;;;2.03;1.92;;;;;;;;;;5056092;28;20234;-67
2021/04/11 11:14:59;;;;;;;2.70;2.50;;;;;;;;;;5056778;28;20202;-67
2021/04/11 11:17:38;;;;;;;2.38;2.28;;;;;;;;;;5047788;28;20250;-67
2021/04/11 11:20:14;;;;;;;2.40;2.20;;;;;;;;;;5056318;28;20192;-67
2021/04/11 11:22:58;;;;;;;3.00;2.80;;;;;;;;;;5055492;28;20215;-68
2021/04/11 11:25:40;;;;;;;3.65;2.25;;;;;;;;;;5035012;28;20253;-68
2021/04/11 11:28:18;;;;;;;2.95;2.42;;;;;;;;;;5055911;28;20179;-68
2021/04/11 11:30:55;;;;;;;5.28;3.30;;;;;;;;;;5056310;28;20300;-67
2021/04/11 11:33:30;;;;;;;3.30;2.83;;;;;;;;;;5056304;28;20228;-67
2021/04/11 11:36:03;;;;;;;3.40;3.10;;;;;;;;;;5061396;28;20676;-67
2021/04/11 11:38:33;;;;;;;3.00;2.60;;;;;;;;;;5055699;28;20194;-67
2021/04/11 11:41:04;;;;;;;3.40;2.60;;;;;;;;;;5055331;28;20197;-67
2021/04/11 11:43:35;;;;;;;2.55;2.33;;;;;;;;;;5055924;28;20537;-67
2021/04/11 11:46:07;;;;;;;4.65;2.40;;;;;;;;;;5055746;28;20272;-67
2021/04/11 11:48:41;;;;;;;2.30;1.83;;;;;;;;;;5055410;28;20184;-67
2021/04/11 11:51:10;;;;;;;2.42;2.22;;;;;;;;;;5055468;28;20265;-68
2021/04/11 11:53:40;;;;;;;5.35;2.47;;;;;;;;;;5054853;28;20200;-67
2021/04/11 11:56:11;;;;;;;2.63;2.33;;;;;;;;;;5055290;28;20257;-67
2021/04/11 11:58:45;;;;;;;2.85;2.55;;;;;;;;;;5054958;28;20276;-68
2021/04/11 12:01:21;;;;;;;2.92;2.63;;;;;;;;;;5054807;28;20179;-68
2021/04/11 12:03:48;;;;;;;2.70;2.45;;;;;;;;;;5054587;28;20195;-68
2021/04/11 12:06:17;;;;;;;3.90;2.78;;;;;;;;;;5054746;28;20294;-69
2021/04/11 12:08:48;;;;;;;4.60;2.30;;;;;;;;;;5055972;28;20286;-68
2021/04/11 12:11:19;;;;;;;2.67;2.42;;;;;;;;;;5055170;28;20194;-70
2021/04/11 12:13:48;;;;;;;3.80;2.38;;;;;;;;;;5054827;28;20237;-68
2021/04/11 12:16:20;;;;;;;2.85;2.63;;;;;;;;;;5054756;28;20198;-69
2021/04/11 12:18:53;;;;;;;4.07;3.20;;;;;;;;;;5054504;28;20183;-68
2021/04/11 12:21:22;;;;;;;3.10;2.58;;;;;;;;;;5054377;28;20688;-68
2021/04/11 12:23:57;;;;;;;5.35;2.60;;;;;;;;;;5055311;28;20239;-68
2021/04/11 12:26:26;;;;;;;5.40;2.70;;;;;;;;;;5054800;28;20182;-67
2021/04/11 12:29:00;;;;;;;3.30;3.00;;;;;;;;;;5054186;28;20650;-67
2021/04/11 12:31:31;;;;;;;2.80;2.03;;;;;;;;;;5054451;28;20189;-67
2021/04/11 12:34:01;;;;;;;2.47;2.28;;;;;;;;;;5053889;28;20665;-67
2021/04/11 12:36:34;;;;;;;3.20;2.85;;;;;;;;;;5054332;28;20183;-67
2021/04/11 12:39:06;;;;;;;2.10;1.90;;;;;;;;;;5054070;28;20187;-70
2021/04/11 12:41:38;;;;;;;5.30;3.08;;;;;;;;;;5054308;28;20236;-69
2021/04/11 12:44:08;;;;;;;3.85;2.60;;;;;;;;;;5053919;28;20264;-68
2021/04/11 12:46:38;;;;;;;3.65;2.47;;;;;;;;;;5053807;28;20231;-69
2021/04/11 12:49:11;;;;;;;3.33;2.50;;;;;;;;;;5053936;28;20180;-68
2021/04/11 12:51:41;;;;;;;2.88;2.58;;;;;;;;;;5054668;28;20180;-68
2021/04/11 12:54:11;;;;;;;6.55;2.50;;;;;;;;;;5054225;28;20548;-68
2021/04/11 12:56:40;;;;;;;3.58;2.58;;;;;;;;;;5053688;28;20237;-67
2021/04/11 12:59:11;;;;;;;2.70;2.50;;;;;;;;;;5054350;28;20562;-67
2021/04/11 13:01:40;;;;;;;2.78;2.45;;;;;;;;;;5054154;28;20641;-67
2021/04/11 13:04:12;;;;;;;2.80;2.10;;;;;;;;;;5053347;28;20206;-67
2021/04/11 13:06:47;;;;;;;3.08;2.10;;;;;;;;;;5054092;28;20328;-68
2021/04/11 13:09:19;;;;;;;2.58;1.98;;;;;;;;;;5053619;28;20621;-67
2021/04/11 13:11:48;;;;;;;5.13;1.90;;;;;;;;;;5053623;28;20320;-69
2021/04/11 13:14:21;;;;;;;3.67;2.40;;;;;;;;;;5053702;28;20264;-67
2021/04/11 13:16:50;;;;;;;2.75;2.40;;;;;;;;;;5053880;28;20215;-68
2021/04/11 13:19:19;;;;;;;5.82;2.40;;;;;;;;;;5053971;28;20207;-68
2021/04/11 13:21:49;;;;;;;2.90;2.30;;;;;;;;;;5053611;28;20190;-68
2021/04/11 13:24:18;;;;;;;2.63;2.42;;;;;;;;;;5053607;28;20215;-67
2021/04/11 13:26:47;;;;;;;2.17;2.08;;;;;;;;;;5053513;28;20235;-68
2021/04/11 13:29:19;;;;;;;3.42;2.50;;;;;;;;;;5053417;28;20203;-66
2021/04/11 13:31:47;;;;;;;5.03;2.38;;;;;;;;;;5054145;28;20187;-67
2021/04/11 13:34:20;;;;;;;2.75;2.20;;;;;;;;;;5053224;28;20609;-67
2021/04/11 13:36:48;;;;;;;3.63;2.33;;;;;;;;;;5053080;28;20230;-67
2021/04/11 13:39:19;;;;;;;4.75;3.22;;;;;;;;;;5053959;28;20196;-68
2021/04/11 13:41:53;;;;;;;10.77;2.50;;;;;;;;;;5053067;28;20192;-68
2021/04/11 13:44:26;;;;;;;4.45;2.60;;;;;;;;;;5053031;28;20227;-68
2021/04/11 13:46:55;;;;;;;3.83;1.95;;;;;;;;;;5053270;28;20692;-68
2021/04/11 13:49:27;;;;;;;5.68;2.20;;;;;;;;;;5053838;28;20286;-69
2021/04/11 13:51:59;;;;;;;2.88;2.15;;;;;;;;;;5053963;28;20271;-68
2021/04/11 13:54:31;;;;;;;5.07;2.70;;;;;;;;;;5053014;28;20298;-68
2021/04/11 13:57:08;;;;;;;3.00;2.25;;;;;;;;;;5054115;28;20185;-67
2021/04/11 13:59:40;;;;;;;3.03;2.50;;;;;;;;;;5055733;28;20590;-68
2021/04/11 14:02:13;;;;;;;4.90;3.25;;;;;;;;;;5057004;28;20190;-68
2021/04/11 14:04:45;;;;;;;2.97;2.65;;;;;;;;;;5056792;28;20199;-68
2021/04/11 14:07:17;;;;;;;2.83;2.55;;;;;;;;;;5057815;28;20555;-68
2021/04/11 14:09:45;;;;;;;2.58;2.38;;;;;;;;;;5056904;28;20194;-67
2021/04/11 14:12:15;;;;;;;8.95;2.50;;;;;;;;;;5056656;28;20202;-67
2021/04/11 14:14:44;;;;;;;5.85;2.80;;;;;;;;;;5056729;28;20214;-66
2021/04/11 14:17:17;;;;;;;2.42;2.22;;;;;;;;;;5057045;28;20219;-67
2021/04/11 14:19:47;;;;;;;2.40;2.15;;;;;;;;;;5056857;28;20191;-67
2021/04/11 14:22:20;;;;;;;2.70;2.50;;;;;;;;;;5057090;28;20569;-67
2021/04/11 14:24:47;;;;;;;5.07;2.90;;;;;;;;;;5057216;28;20187;-66
2021/04/11 14:27:18;;;;;;;2.70;2.10;;;;;;;;;;5056606;28;20235;-65
2021/04/11 14:29:55;;;;;;;6.20;2.78;;;;;;;;;;5056664;28;20230;-66
2021/04/11 14:32:25;;;;;;;4.85;2.65;;;;;;;;;;5056835;28;20618;-65
2021/04/11 14:34:55;;;;;;;3.85;2.83;;;;;;;;;;5056898;28;20301;-66
2021/04/11 14:37:24;;;;;;;6.35;2.47;;;;;;;;;;5056659;28;20581;-66
2021/04/11 14:39:54;;;;;;;2.65;2.45;;;;;;;;;;5056557;28;20226;-67
2021/04/11 14:42:23;;;;;;;4.88;2.30;;;;;;;;;;5056735;28;20239;-67
2021/04/11 14:44:53;;;;;;;2.80;2.25;;;;;;;;;;5056260;28;20203;-66
2021/04/11 14:47:24;;;;;;;4.93;2.60;;;;;;;;;;5057126;28;20221;-67
2021/04/11 14:49:52;;;;;;;3.00;2.70;;;;;;;;;;5056613;28;20199;-67
2021/04/11 14:52:26;;;;;;;2.65;2.45;;;;;;;;;;5056288;28;20199;-66
2021/04/11 14:54:55;;;;;;;5.30;2.70;;;;;;;;;;5056843;28;20314;-66
2021/04/11 14:57:28;;;;;;;4.22;2.38;;;;;;;;;;5056230;28;20238;-66
2021/04/11 15:00:12;;;;;;;7.00;2.67;;;;;;;;;;5056363;28;20729;-67
2021/04/11 15:02:42;;;;;;;2.85;2.15;;;;;;;;;;5055776;28;20278;-67
2021/04/11 15:05:16;;;;;;;3.05;2.85;;;;;;;;;;5057235;28;20620;-67